Time;durP1;ratioP1;P1;durP2;ratioP2;P2;SDS_P1;SDS_P2;PMS_P1;PMS_P2;Temp;Humidity;BMP_temperature;BMP_pressure;BME280_temperature;BME280_humidity;BME280_pressure;Samples;Min_cycle;Max_cycle;Signal;HPM_P1;HPM_P2
2021/09/21 00:01:22;;;;;;;3.63;3.33;;;;;;;11.92;81.68;101750.69;4993999;28;20278;-78
2021/09/21 00:03:50;;;;;;;4.73;4.20;;;;;;;11.93;81.54;101751.53;4994301;28;20584;-78
2021/09/21 00:06:16;;;;;;;4.07;3.70;;;;;;;11.77;81.69;101747.22;4993954;28;20283;-78
2021/09/21 00:08:43;;;;;;;4.50;4.10;;;;;;;11.68;82.31;101720.22;4993292;28;20271;-78
2021/09/21 00:11:10;;;;;;;4.57;4.17;;;;;;;11.61;83.32;101699.31;4994059;28;20224;-78
2021/09/21 00:13:37;;;;;;;5.73;4.13;;;;;;;11.56;83.04;101695.84;4993710;28;20205;-78
2021/09/21 00:16:05;;;;;;;5.53;4.03;;;;;;;11.48;83.24;101701.09;4993596;28;20228;-78
2021/09/21 00:18:32;;;;;;;4.27;3.90;;;;;;;11.56;83.25;101698.47;4993598;28;20713;-78
2021/09/21 00:21:01;;;;;;;4.33;3.93;;;;;;;11.57;83.90;101698.44;4993969;28;20227;-79
2021/09/21 00:23:28;;;;;;;4.40;3.90;;;;;;;11.60;83.62;101692.34;4993301;28;20287;-78
2021/09/21 00:25:54;;;;;;;4.40;4.10;;;;;;;11.55;83.48;101696.72;4993716;28;20645;-79
2021/09/21 00:28:21;;;;;;;4.70;4.30;;;;;;;11.46;83.88;101702.84;4993535;28;20220;-78
2021/09/21 00:30:49;;;;;;;4.60;3.90;;;;;;;11.55;84.43;101696.72;4993364;28;20263;-78
2021/09/21 00:33:18;;;;;;;4.43;4.07;;;;;;;11.60;84.07;101681.88;4993492;28;20209;-78
2021/09/21 00:35:47;;;;;;;5.10;4.60;;;;;;;11.67;84.42;101683.59;4993126;28;20212;-78
2021/09/21 00:38:17;;;;;;;4.00;3.60;;;;;;;11.72;84.36;101697.53;4992874;28;20204;-78
2021/09/21 00:40:45;;;;;;;4.50;3.87;;;;;;;11.66;83.88;101702.78;4993905;28;20272;-79
2021/09/21 00:43:12;;;;;;;4.00;3.70;;;;;;;11.49;84.37;101692.34;4993435;28;20200;-78
2021/09/21 00:45:39;;;;;;;6.63;4.33;;;;;;;11.44;85.30;101668.84;4993099;28;20215;-79
2021/09/21 00:48:06;;;;;;;4.63;4.23;;;;;;;11.36;85.48;101657.56;4993059;28;20215;-78
2021/09/21 00:50:35;;;;;;;6.53;4.67;;;;;;;11.21;85.96;101649.72;4993344;28;20615;-78
2021/09/21 00:53:02;;;;;;;5.10;4.60;;;;;;;11.10;86.44;101634.94;4992952;28;20579;-78
2021/09/21 00:55:30;;;;;;;4.83;4.17;;;;;;;10.96;86.94;101625.38;4992823;28;20263;-79
2021/09/21 00:57:57;;;;;;;5.23;4.73;;;;;;;10.89;87.45;101601.88;4992855;28;20231;-78
2021/09/21 01:00:23;;;;;;;5.53;5.13;;;;;;;10.83;87.99;101586.22;4992513;28;20274;-77
2021/09/21 01:02:51;;;;;;;4.83;4.43;;;;;;;10.76;88.37;101574.03;4992619;28;20678;-78
2021/09/21 01:05:18;;;;;;;5.90;5.03;;;;;;;10.79;88.61;101575.78;4992335;28;20824;-78
2021/09/21 01:07:45;;;;;;;5.53;5.03;;;;;;;10.72;88.75;101565.34;4992522;28;20268;-78
2021/09/21 01:10:15;;;;;;;5.90;5.40;;;;;;;10.69;88.99;101549.69;4990674;28;20263;-78
2021/09/21 01:12:44;;;;;;;5.50;5.00;;;;;;;10.68;89.28;101540.13;4992412;28;20219;-78
2021/09/21 01:15:11;;;;;;;5.40;4.90;;;;;;;10.80;89.14;101533.13;4992316;28;20211;-78
2021/09/21 01:17:39;;;;;;;4.67;4.27;;;;;;;10.96;89.36;101526.09;4991769;28;20285;-78
2021/09/21 01:20:07;;;;;;;5.80;4.60;;;;;;;11.05;89.55;101531.31;4992169;28;20565;-78
2021/09/21 01:22:35;;;;;;;5.10;4.70;;;;;;;11.13;88.82;101537.38;4992352;28;20732;-78
2021/09/21 01:25:02;;;;;;;6.50;5.90;;;;;;;11.21;87.99;101563.50;4992906;28;20235;-78
2021/09/21 01:27:29;;;;;;;4.87;4.47;;;;;;;11.18;87.56;101592.22;4992039;28;20235;-78
2021/09/21 01:29:55;;;;;;;4.93;4.40;;;;;;;11.21;87.73;101587.00;4992136;28;20761;-78
2021/09/21 01:32:22;;;;;;;5.43;4.87;;;;;;;11.17;87.52;101590.50;4992524;28;20275;-78
2021/09/21 01:34:49;;;;;;;4.83;4.40;;;;;;;11.24;87.53;101594.84;4992762;28;20207;-78
2021/09/21 01:37:16;;;;;;;5.37;4.87;;;;;;;11.27;87.83;101592.22;4992628;28;20224;-78
2021/09/21 01:39:44;;;;;;;4.97;4.50;;;;;;;11.30;87.48;101592.22;4992171;28;20702;-78
2021/09/21 01:42:12;;;;;;;4.97;4.57;;;;;;;11.40;87.25;101591.31;4992226;28;20200;-78
2021/09/21 01:44:38;;;;;;;5.10;4.70;;;;;;;11.43;87.27;101599.13;4991946;28;20220;-78
2021/09/21 01:47:05;;;;;;;5.60;5.10;;;;;;;11.45;86.71;101610.44;4991933;28;20286;-78
2021/09/21 01:49:38;;;;;;;5.70;4.50;;;;;;;11.35;86.33;101631.41;4991725;28;20212;-78
2021/09/21 01:52:10;;;;;;;5.10;4.60;;;;;;;11.33;86.70;101626.16;4991453;28;20667;-78
2021/09/21 01:54:50;;;;;;;5.10;4.70;;;;;;;11.43;86.55;101640.09;4992085;28;20203;-78
2021/09/21 02:00:03;;;;;;;5.83;5.23;;;;;;;10.70;88.89;101559.25;4990757;28;20228;-78
2021/09/21 02:02:30;;;;;;;5.53;5.03;;;;;;;10.74;89.75;101526.16;4991841;28;20211;-78
2021/09/21 02:04:56;;;;;;;5.70;5.20;;;;;;;10.86;89.63;101539.22;4991333;28;20227;-77
2021/09/21 02:07:23;;;;;;;6.10;5.50;;;;;;;10.88;88.80;101560.06;4991202;28;20223;-78
2021/09/21 02:09:49;;;;;;;5.93;5.43;;;;;;;10.63;89.86;101541.84;4990990;28;20208;-78
2021/09/21 02:12:16;;;;;;;7.47;6.03;;;;;;;10.59;90.55;101514.00;4990932;28;20280;-78
2021/09/21 02:14:43;;;;;;;6.20;5.70;;;;;;;10.75;90.05;101522.69;4992165;28;20262;-79
2021/09/21 02:17:10;;;;;;;5.83;5.33;;;;;;;10.64;89.87;101535.75;4992665;28;20278;-78
2021/09/21 02:19:37;;;;;;;6.30;5.70;;;;;;;10.51;90.52;101521.84;4992653;28;20886;-79
2021/09/21 02:22:04;;;;;;;5.83;5.33;;;;;;;10.46;91.13;101517.50;4992450;28;20217;-78
2021/09/21 02:24:30;;;;;;;6.40;5.80;;;;;;;10.51;90.69;101518.38;4993436;28;20259;-78
2021/09/21 02:26:57;;;;;;;6.07;5.43;;;;;;;10.52;90.70;101523.59;4992695;28;20235;-79
2021/09/21 02:29:23;;;;;;;6.03;5.47;;;;;;;10.52;90.75;101526.22;4992714;28;20218;-78
2021/09/21 02:31:51;;;;;;;5.90;5.50;;;;;;;10.49;90.77;101527.97;4992980;28;20450;-79
2021/09/21 02:34:17;;;;;;;6.10;5.60;;;;;;;10.51;90.50;101529.69;4992753;28;20203;-79
2021/09/21 02:36:44;;;;;;;6.47;5.87;;;;;;;10.36;91.16;101523.59;4992987;28;20233;-78
2021/09/21 02:39:11;;;;;;;9.43;6.40;;;;;;;10.45;91.02;101523.63;4992043;28;20806;-79
2021/09/21 02:41:37;;;;;;;5.80;5.30;;;;;;;10.47;90.86;101527.09;4992656;28;20209;-79
2021/09/21 02:44:04;;;;;;;6.77;5.47;;;;;;;10.65;90.45;101540.13;4992862;28;20211;-78
2021/09/21 02:46:31;;;;;;;6.20;5.60;;;;;;;10.73;90.09;101553.16;4991167;28;20233;-78
2021/09/21 02:48:58;;;;;;;6.30;5.73;;;;;;;10.59;90.02;101561.00;4990291;28;20297;-78
2021/09/21 02:51:25;;;;;;;5.80;5.30;;;;;;;10.70;89.85;101555.75;4990654;28;20266;-78
2021/09/21 02:53:51;;;;;;;5.47;4.73;;;;;;;10.80;90.06;101554.00;4991000;28;20266;-78
2021/09/21 02:56:17;;;;;;;5.60;5.10;;;;;;;10.59;89.66;101566.22;4991005;28;20631;-77
2021/09/21 02:58:44;;;;;;;5.80;5.30;;;;;;;10.54;90.23;101552.31;4991163;28;20207;-78
2021/09/21 03:01:11;;;;;;;6.30;5.70;;;;;;;10.44;90.42;101548.81;4990930;28;20661;-78
2021/09/21 03:03:44;;;;;;;6.40;5.90;;;;;;;10.41;90.76;101538.41;4991254;28;20333;-78
2021/09/21 03:06:20;;;;;;;6.50;5.80;;;;;;;10.32;90.93;101538.41;4991022;28;20234;-77
2021/09/21 03:08:47;;;;;;;7.27;5.83;;;;;;;10.36;91.71;101521.00;4990640;28;20204;-77
2021/09/21 03:11:17;;;;;;;6.10;5.60;;;;;;;10.35;91.77;101512.31;4993060;28;20295;-78
2021/09/21 03:17:06;;;;;;;6.70;6.10;;;;;;;10.26;91.78;101505.31;4993179;28;20243;-78
2021/09/21 03:19:26;;;;;;;6.73;6.13;;;;;;;10.04;92.84;101486.19;4990362;28;20763;-78
2021/09/21 03:21:55;;;;;;;5.80;5.27;;;;;;;10.02;93.24;101466.19;4990934;28;20202;-78
2021/09/21 03:24:21;;;;;;;6.10;5.50;;;;;;;10.06;93.25;101465.31;4992014;28;20210;-78
2021/09/21 03:26:48;;;;;;;6.10;5.50;;;;;;;10.06;93.39;101467.91;4992482;28;20286;-78
2021/09/21 03:29:14;;;;;;;5.97;5.47;;;;;;;10.14;93.24;101476.63;4993099;28;20208;-78
2021/09/21 03:31:41;;;;;;;5.87;5.47;;;;;;;10.16;92.71;101493.13;4993055;28;20214;-78
2021/09/21 03:34:07;;;;;;;6.17;5.60;;;;;;;10.20;92.30;101507.91;4993671;28;20215;-78
2021/09/21 03:36:34;;;;;;;6.33;5.73;;;;;;;10.24;91.46;101529.66;4995121;28;20351;-78
2021/09/21 03:39:01;;;;;;;5.97;5.43;;;;;;;10.08;91.33;101539.22;4993984;28;20580;-78
2021/09/21 03:41:28;;;;;;;6.07;5.57;;;;;;;9.93;92.24;101527.06;4994343;28;20221;-78
2021/09/21 03:43:54;;;;;;;6.50;5.90;;;;;;;9.81;92.63;101516.56;4994156;28;20234;-78
2021/09/21 03:46:21;;;;;;;7.97;6.53;;;;;;;9.62;93.39;101497.44;4993994;28;20227;-77
2021/09/21 03:48:47;;;;;;;7.00;6.33;;;;;;;9.60;93.62;101488.75;4993867;28;20218;-78
2021/09/21 03:51:13;;;;;;;6.83;6.20;;;;;;;9.63;93.36;101491.34;4993826;28;20556;-78
2021/09/21 03:53:40;;;;;;;10.30;6.27;;;;;;;9.63;93.62;101501.78;4994056;28;20286;-77
2021/09/21 03:56:08;;;;;;;7.53;6.60;;;;;;;9.50;93.93;101500.88;4994213;28;20235;-78
2021/09/21 03:58:34;;;;;;;8.60;6.97;;;;;;;9.46;94.34;101494.78;4993563;28;20630;-78
2021/09/21 04:01:01;;;;;;;7.90;7.20;;;;;;;9.42;94.51;101490.44;4993788;28;20226;-77
2021/09/21 04:03:27;;;;;;;7.60;6.90;;;;;;;9.51;94.32;101502.63;4993950;28;20195;-77
2021/09/21 04:05:53;;;;;;;7.63;5.93;;;;;;;9.42;94.11;101513.03;4993915;28;20207;-78
2021/09/21 04:08:20;;;;;;;7.63;6.83;;;;;;;9.38;94.57;101512.16;4993122;28;20207;-77
2021/09/21 04:10:46;;;;;;;6.40;5.80;;;;;;;9.51;94.46;101515.66;4994328;28;20212;-78
2021/09/21 04:13:14;;;;;;;7.13;6.43;;;;;;;9.47;93.46;101538.22;4994021;28;20220;-78
2021/09/21 04:15:41;;;;;;;7.40;6.70;;;;;;;9.46;93.50;101538.25;4993580;28;20215;-78
2021/09/21 04:18:08;;;;;;;7.70;6.83;;;;;;;9.44;93.38;101537.38;4993525;28;20207;-77
2021/09/21 04:20:34;;;;;;;9.60;7.27;;;;;;;9.58;93.37;101547.84;4994131;28;20210;-78
2021/09/21 04:23:02;;;;;;;7.47;6.77;;;;;;;9.60;92.88;101565.22;4993288;28;20254;-78
2021/09/21 04:25:30;;;;;;;7.20;6.50;;;;;;;9.52;92.92;101578.22;4993874;28;20207;-77
2021/09/21 04:27:57;;;;;;;6.87;6.13;;;;;;;9.56;92.90;101568.69;4993356;28;20747;-78
2021/09/21 04:30:25;;;;;;;7.40;6.30;;;;;;;9.59;93.01;101573.88;4996116;28;20216;-78
2021/09/21 04:32:51;;;;;;;7.20;6.63;;;;;;;9.50;93.09;101569.53;4995647;28;20270;-78
2021/09/21 04:35:18;;;;;;;6.83;6.33;;;;;;;9.49;93.41;101564.28;4995407;28;20204;-78
2021/09/21 04:37:45;;;;;;;7.47;6.80;;;;;;;9.50;93.27;101572.13;4995606;28;20251;-78
2021/09/21 04:40:12;;;;;;;7.37;6.80;;;;;;;9.51;93.42;101570.38;4995157;28;20201;-78
2021/09/21 04:42:39;;;;;;;7.03;6.17;;;;;;;9.54;93.54;101563.44;4995692;28;20270;-78
2021/09/21 04:45:08;;;;;;;8.00;7.27;;;;;;;9.62;93.18;101573.91;4994823;28;20451;-78
2021/09/21 04:47:36;;;;;;;7.87;6.87;;;;;;;9.69;93.27;101580.00;4995473;28;20774;-78
2021/09/21 04:50:03;;;;;;;7.27;6.33;;;;;;;9.76;92.89;101593.94;4995798;28;20262;-78
2021/09/21 04:52:30;;;;;;;7.87;6.40;;;;;;;9.86;92.79;101593.09;4994846;28;20232;-78
2021/09/21 04:54:56;;;;;;;6.63;6.03;;;;;;;9.93;92.56;101603.56;4995047;28;20255;-78
2021/09/21 04:57:23;;;;;;;7.07;6.37;;;;;;;9.88;92.18;101597.44;4995511;28;20224;-78
2021/09/21 04:59:49;;;;;;;7.57;6.93;;;;;;;9.94;92.35;101607.88;4994879;28;20217;-77
2021/09/21 05:02:16;;;;;;;7.53;6.33;;;;;;;10.00;92.36;101611.38;4993974;28;20670;-77
2021/09/21 05:04:44;;;;;;;7.37;6.70;;;;;;;9.97;92.11;101609.66;4995742;28;20257;-78
2021/09/21 05:07:10;;;;;;;6.83;6.23;;;;;;;9.86;92.04;101608.75;4995177;28;20232;-78
2021/09/21 05:09:36;;;;;;;7.20;6.53;;;;;;;9.87;91.89;101610.47;4994795;28;20261;-78
2021/09/21 05:12:04;;;;;;;7.43;6.83;;;;;;;9.73;91.81;101624.34;4994593;28;20211;-79
2021/09/21 05:14:30;;;;;;;9.47;7.23;;;;;;;9.47;92.75;101586.88;4993852;28;20204;-79
2021/09/21 05:16:56;;;;;;;8.10;7.30;;;;;;;9.32;92.86;101591.16;4993951;28;20227;-79
2021/09/21 05:19:23;;;;;;;6.87;6.33;;;;;;;9.29;93.35;101588.53;4993212;28;20217;-78
2021/09/21 05:21:51;;;;;;;7.93;7.13;;;;;;;9.25;93.89;101576.34;4993206;28;20220;-78
2021/09/21 05:24:17;;;;;;;8.03;7.20;;;;;;;9.24;93.50;101578.97;4993293;28;20203;-78
2021/09/21 05:26:43;;;;;;;8.00;7.23;;;;;;;9.28;94.32;101568.56;4993161;28;20308;-79
2021/09/21 05:29:10;;;;;;;7.93;7.20;;;;;;;9.25;93.78;101571.13;4994027;28;20212;-78
2021/09/21 05:31:36;;;;;;;7.20;6.60;;;;;;;9.33;93.56;101594.63;4994507;28;20801;-78
2021/09/21 05:34:03;;;;;;;8.27;7.47;;;;;;;9.37;92.29;101621.56;4994131;28;20231;-77
2021/09/21 05:36:30;;;;;;;7.47;6.77;;;;;;;9.41;93.21;101611.16;4992148;28;20235;-77
2021/09/21 05:38:58;;;;;;;7.93;7.13;;;;;;;9.47;92.46;101616.41;4990444;28;20663;-77
2021/09/21 05:41:25;;;;;;;11.10;7.60;;;;;;;9.50;91.43;101659.88;4992291;28;20575;-78
2021/09/21 05:43:51;;;;;;;7.07;6.37;;;;;;;9.58;91.79;101666.00;4992154;28;20200;-78
2021/09/21 05:46:18;;;;;;;7.37;6.67;;;;;;;9.59;91.83;101664.25;4992081;28;20634;-77
2021/09/21 05:48:44;;;;;;;7.27;6.77;;;;;;;9.58;91.54;101672.94;4993360;28;20207;-79
2021/09/21 05:51:12;;;;;;;8.63;7.93;;;;;;;9.64;91.02;101688.63;4993370;28;20957;-79
2021/09/21 05:53:38;;;;;;;8.10;7.03;;;;;;;9.65;91.01;101704.28;4993011;28;20244;-77
2021/09/21 05:56:06;;;;;;;9.67;7.70;;;;;;;9.76;91.82;101685.22;4992167;28;20286;-77
2021/09/21 05:58:32;;;;;;;13.10;8.67;;;;;;;10.02;94.17;101614.88;4992841;28;20203;-79
2021/09/21 06:00:59;;;;;;;13.37;9.10;;;;;;;10.30;95.85;101546.22;4992398;28;20212;-78
2021/09/21 06:03:25;;;;;;;7.23;6.63;;;;;;;10.30;91.77;101631.47;4992282;28;20669;-79
2021/09/21 06:05:52;;;;;;;19.70;11.27;;;;;;;10.33;92.31;101686.31;4993641;28;20227;-79
2021/09/21 06:08:18;;;;;;;8.70;7.80;;;;;;;10.37;90.37;101695.88;4994167;28;20238;-79
2021/09/21 06:10:44;;;;;;;8.37;7.00;;;;;;;10.39;90.43;101714.16;4992293;28;20214;-78
2021/09/21 06:13:12;;;;;;;8.70;7.80;;;;;;;10.54;91.51;101737.66;4990067;28;20230;-77
2021/09/21 06:15:39;;;;;;;10.40;8.43;;;;;;;10.66;90.21;101771.66;4990179;28;20395;-76
2021/09/21 06:18:05;;;;;;;7.77;7.07;;;;;;;10.58;86.85;101845.59;4989902;28;20213;-76
2021/09/21 06:20:32;;;;;;;8.07;7.37;;;;;;;10.63;90.72;101782.09;4989687;28;20215;-76
2021/09/21 06:22:58;;;;;;;9.40;7.50;;;;;;;10.89;91.13;101708.97;4989548;28;20254;-76
2021/09/21 06:25:25;;;;;;;8.00;7.17;;;;;;;10.75;87.29;101853.50;4989533;28;20269;-75
2021/09/21 06:27:51;;;;;;;7.63;6.63;;;;;;;10.84;87.12;101864.84;4989804;28;20255;-76
2021/09/21 06:30:19;;;;;;;6.70;6.00;;;;;;;10.89;86.51;101878.78;4989190;28;20204;-76
2021/09/21 06:32:46;;;;;;;9.37;7.57;;;;;;;11.28;90.84;101740.34;4989922;28;20219;-76
2021/09/21 06:35:13;;;;;;;8.83;6.37;;;;;;;11.32;87.30;101808.28;4989677;28;20317;-76
2021/09/21 06:37:39;;;;;;;7.13;6.50;;;;;;;11.48;86.66;101865.81;4988661;28;20233;-76
2021/09/21 06:40:08;;;;;;;8.73;6.43;;;;;;;11.29;82.88;101979.94;4989404;28;20212;-76
2021/09/21 06:42:35;;;;;;;9.77;6.80;;;;;;;11.06;83.23;102021.66;4989469;28;20212;-76
2021/09/21 06:45:03;;;;;;;7.50;6.90;;;;;;;10.95;85.28;101958.06;4989122;28;20275;-76
2021/09/21 06:47:31;;;;;;;8.97;7.80;;;;;;;10.68;85.81;101944.00;4989420;28;20720;-76
2021/09/21 06:49:58;;;;;;;7.77;7.07;;;;;;;10.70;85.63;101923.97;4988775;28;20278;-76
2021/09/21 06:52:24;;;;;;;7.53;6.93;;;;;;;10.42;86.39;101923.84;4989215;28;20879;-77
2021/09/21 06:54:50;;;;;;;7.50;6.90;;;;;;;10.54;87.83;101870.81;4988776;28;20314;-77
2021/09/21 06:57:17;;;;;;;8.90;7.93;;;;;;;10.81;88.53;101851.78;4988475;28;20747;-77
2021/09/21 06:59:43;;;;;;;8.20;7.43;;;;;;;10.70;86.27;101913.53;4988982;28;20211;-76
2021/09/21 07:02:10;;;;;;;7.60;6.87;;;;;;;10.58;86.73;101898.69;4989346;28;20219;-77
2021/09/21 07:04:38;;;;;;;8.00;7.30;;;;;;;10.57;87.05;101899.56;4988561;28;20199;-77
2021/09/21 07:07:04;;;;;;;8.07;7.37;;;;;;;10.49;87.40;101880.38;4988320;28;20227;-77
2021/09/21 07:09:30;;;;;;;8.40;7.53;;;;;;;10.62;87.94;101876.06;4988474;28;20269;-77
2021/09/21 07:11:57;;;;;;;8.37;7.67;;;;;;;10.63;86.98;101888.28;4988396;28;20216;-77
2021/09/21 07:14:23;;;;;;;7.67;6.90;;;;;;;10.64;87.66;101856.91;4988794;28;20884;-77
2021/09/21 07:16:50;;;;;;;8.43;7.60;;;;;;;10.91;88.72;101834.38;4988674;28;20795;-77
2021/09/21 07:19:16;;;;;;;8.17;7.37;;;;;;;11.15;86.55;101870.13;4988549;28;20265;-76
2021/09/21 07:21:47;;;;;;;7.90;7.20;;;;;;;11.16;85.54;101931.09;4989074;28;20338;-76
2021/09/21 07:24:13;;;;;;;7.90;7.20;;;;;;;11.27;85.63;101955.53;4988208;28;20205;-76
2021/09/21 07:26:40;;;;;;;7.17;6.57;;;;;;;11.19;85.11;101967.72;4989039;28;20787;-76
2021/09/21 07:29:06;;;;;;;8.23;7.40;;;;;;;11.01;85.44;101958.94;4988486;28;20215;-76
2021/09/21 07:31:33;;;;;;;8.47;7.70;;;;;;;11.11;86.15;101939.81;4988689;28;20742;-76
2021/09/21 07:33:59;;;;;;;9.93;7.40;;;;;;;11.11;85.74;101960.72;4988857;28;20278;-76
2021/09/21 07:36:26;;;;;;;7.90;7.20;;;;;;;11.09;84.81;101990.34;4988591;28;20257;-76
2021/09/21 07:38:53;;;;;;;8.27;7.47;;;;;;;11.22;84.58;101992.13;4987866;28;20228;-76
2021/09/21 07:41:20;;;;;;;7.90;7.13;;;;;;;11.39;84.16;102004.38;4988996;28;20209;-76
2021/09/21 07:43:46;;;;;;;8.87;7.10;;;;;;;11.21;83.08;102067.91;4988429;28;20206;-77
2021/09/21 07:46:13;;;;;;;7.30;6.80;;;;;;;11.32;82.02;102085.41;4988327;28;20760;-76
2021/09/21 07:48:40;;;;;;;7.97;7.37;;;;;;;11.20;79.29;102175.94;4988455;28;20247;-76
2021/09/21 07:51:08;;;;;;;7.53;6.93;;;;;;;11.41;81.88;102134.25;4988528;28;20292;-77
2021/09/21 07:53:34;;;;;;;7.67;6.97;;;;;;;11.35;81.36;102142.06;4988378;28;20314;-77
2021/09/21 07:56:03;;;;;;;7.90;7.20;;;;;;;11.21;80.55;102147.22;4988495;28;20231;-77
2021/09/21 07:58:29;;;;;;;7.63;7.00;;;;;;;11.39;81.43;102133.34;4988025;28;20253;-76
2021/09/21 08:00:55;;;;;;;7.83;6.70;;;;;;;11.44;82.58;102117.72;4988231;28;20679;-77
2021/09/21 08:03:23;;;;;;;7.33;6.73;;;;;;;11.66;80.96;102118.66;4988664;28;20205;-76
2021/09/21 08:05:49;;;;;;;7.23;6.63;;;;;;;11.76;81.88;102123.06;4988421;28;20204;-76
2021/09/21 08:08:16;;;;;;;8.07;7.40;;;;;;;11.82;78.51;102196.34;4988007;28;20718;-76
2021/09/21 08:10:43;;;;;;;7.27;6.57;;;;;;;11.98;79.25;102206.91;4987929;28;20641;-77
2021/09/21 08:13:12;;;;;;;8.33;6.90;;;;;;;12.02;78.40;102217.38;4988263;28;20207;-77
2021/09/21 08:15:38;;;;;;;10.60;7.20;;;;;;;12.02;78.10;102237.47;4988354;28;20207;-76
2021/09/21 08:18:06;;;;;;;7.90;6.90;;;;;;;12.25;79.71;102196.53;4987805;28;20215;-77
2021/09/21 08:20:33;;;;;;;6.90;6.30;;;;;;;12.56;80.75;102162.50;4991300;28;20206;-77
2021/09/21 08:23:00;;;;;;;7.73;7.03;;;;;;;12.82;80.11;102170.34;4991699;28;20245;-77
2021/09/21 08:25:26;;;;;;;9.87;6.30;;;;;;;12.78;76.28;102296.16;4991976;28;20250;-76
2021/09/21 08:27:53;;;;;;;7.00;6.40;;;;;;;12.89;75.80;102294.44;4991794;28;20248;-77
2021/09/21 08:30:20;;;;;;;7.03;6.40;;;;;;;13.07;77.73;102236.75;4991823;28;20263;-77
2021/09/21 08:32:48;;;;;;;6.80;6.20;;;;;;;13.16;76.92;102311.06;4991430;28;20201;-77
2021/09/21 08:35:14;;;;;;;8.43;6.43;;;;;;;13.16;73.79;102376.59;4991701;28;20327;-77
2021/09/21 08:37:41;;;;;;;7.33;6.73;;;;;;;13.29;76.10;102342.56;4991949;28;20226;-76
2021/09/21 08:40:09;;;;;;;6.93;6.30;;;;;;;12.82;71.72;102500.56;4991075;28;20294;-76
2021/09/21 08:42:35;;;;;;;6.70;6.10;;;;;;;12.97;72.51;102476.19;4991742;28;20582;-76
2021/09/21 08:45:02;;;;;;;6.37;5.80;;;;;;;13.17;73.17;102430.81;4991132;28;20205;-76
2021/09/21 08:47:32;;;;;;;7.37;6.27;;;;;;;13.27;71.48;102492.91;4991232;28;20229;-77
2021/09/21 08:50:01;;;;;;;6.77;6.17;;;;;;;13.26;71.26;102527.84;4991360;28;20212;-77
2021/09/21 08:52:28;;;;;;;7.37;6.70;;;;;;;12.78;71.12;102540.75;4991422;28;20648;-76
2021/09/21 08:54:54;;;;;;;7.43;6.73;;;;;;;12.76;70.76;102542.47;4990769;28;20770;-76
2021/09/21 08:57:22;;;;;;;7.20;6.60;;;;;;;12.74;70.31;102562.56;4990895;28;20255;-76
2021/09/21 08:59:52;;;;;;;7.90;7.17;;;;;;;12.66;71.77;102512.72;4991001;28;20224;-76
2021/09/21 09:02:21;;;;;;;7.87;7.17;;;;;;;12.65;71.16;102529.34;4991218;28;20315;-75
2021/09/21 09:05:01;;;;;;;7.80;7.10;;;;;;;12.81;72.21;102467.41;4991142;28;20201;-76
2021/09/21 09:07:28;;;;;;;7.30;6.60;;;;;;;12.96;71.72;102498.03;4991144;28;20228;-76
2021/09/21 09:10:02;;;;;;;8.43;7.53;;;;;;;12.92;70.49;102546.06;4990234;28;20294;-76
2021/09/21 09:12:30;;;;;;;7.73;7.00;;;;;;;12.77;69.94;102569.59;4991214;28;20218;-76
2021/09/21 09:14:56;;;;;;;8.13;7.53;;;;;;;12.85;71.87;102503.22;4990627;28;20227;-76
2021/09/21 09:17:23;;;;;;;7.67;6.97;;;;;;;13.07;71.96;102485.84;4990771;28;20715;-76
2021/09/21 09:19:51;;;;;;;7.30;6.60;;;;;;;13.17;70.49;102552.31;4990860;28;20239;-76
2021/09/21 09:22:24;;;;;;;7.37;6.67;;;;;;;13.07;69.33;102579.38;4991218;28;20356;-76
2021/09/21 09:24:54;;;;;;;6.60;6.10;;;;;;;13.04;71.28;102529.53;4990494;28;20197;-76
2021/09/21 09:27:34;;;;;;;7.13;6.57;;;;;;;13.17;72.27;102459.66;4990886;28;20233;-76
2021/09/21 09:30:03;;;;;;;6.27;5.67;;;;;;;13.20;71.39;102485.88;4298013;28;10000772;-76
2021/09/21 09:32:29;;;;;;;6.10;5.60;;;;;;;12.94;69.97;102564.44;4987371;28;20291;-76
2021/09/21 09:34:58;;;;;;;5.97;5.47;;;;;;;13.00;70.35;102544.38;4987790;28;20284;-76
2021/09/21 09:37:38;;;;;;;5.73;5.13;;;;;;;13.13;71.20;102531.31;4987400;28;20229;-76
2021/09/21 09:40:05;;;;;;;5.73;5.33;;;;;;;12.98;70.99;102532.97;4987634;28;20208;-76
2021/09/21 09:42:33;;;;;;;5.97;5.47;;;;;;;13.01;70.47;102540.88;4988008;28;20209;-76
2021/09/21 09:45:02;;;;;;;6.00;5.47;;;;;;;13.15;71.71;102506.84;4987652;28;20206;-76
2021/09/21 09:47:28;;;;;;;5.73;5.23;;;;;;;13.21;70.31;102534.84;4987493;28;20227;-75
2021/09/21 09:49:56;;;;;;;6.30;5.80;;;;;;;13.54;71.58;102493.84;4987593;28;20245;-76
2021/09/21 09:52:22;;;;;;;6.03;5.63;;;;;;;13.62;68.83;102587.50;4987784;28;20216;-76
2021/09/21 09:54:50;;;;;;;5.93;5.30;;;;;;;13.77;68.87;102586.63;4987252;28;20291;-76
2021/09/21 09:57:17;;;;;;;5.63;5.13;;;;;;;13.68;66.37;102660.13;4987929;28;20225;-76
2021/09/21 09:59:43;;;;;;;5.63;5.13;;;;;;;13.78;67.15;102651.41;4987109;28;20217;-76
2021/09/21 10:02:10;;;;;;;5.90;5.40;;;;;;;13.96;67.90;102641.84;4987630;28;20280;-76
2021/09/21 10:04:38;;;;;;;5.37;5.00;;;;;;;14.04;67.40;102647.97;4987176;28;20350;-76
2021/09/21 10:07:04;;;;;;;6.17;5.67;;;;;;;14.13;66.52;102689.13;4987002;28;20756;-76
2021/09/21 10:09:31;;;;;;;7.17;5.80;;;;;;;14.06;65.51;102719.75;4986298;28;20213;-76
2021/09/21 10:12:00;;;;;;;5.47;5.07;;;;;;;14.00;64.49;102753.88;4987051;28;20239;-76
2021/09/21 10:14:28;;;;;;;6.77;5.00;;;;;;;13.93;66.45;102725.84;4986943;28;20734;-77
2021/09/21 10:16:59;;;;;;;5.53;5.00;;;;;;;13.90;65.34;102740.72;4987557;28;20339;-77
2021/09/21 10:19:26;;;;;;;4.80;4.40;;;;;;;13.97;66.78;102694.34;4987406;28;20216;-77
2021/09/21 10:21:55;;;;;;;5.30;4.77;;;;;;;14.05;66.27;102697.00;4987209;28;20252;-76
2021/09/21 10:24:32;;;;;;;4.27;3.97;;;;;;;14.19;65.61;102707.53;4986538;28;20232;-77
2021/09/21 10:27:04;;;;;;;6.67;5.40;;;;;;;14.27;64.56;102753.97;4987214;28;20238;-77
2021/09/21 10:29:31;;;;;;;5.87;5.37;;;;;;;14.36;65.55;102724.22;4986951;28;20218;-76
2021/09/21 10:31:58;;;;;;;5.07;4.67;;;;;;;14.28;64.89;102741.72;4986975;28;20326;-76
2021/09/21 10:34:25;;;;;;;5.10;4.60;;;;;;;14.49;65.39;102722.50;4986091;28;20603;-76
2021/09/21 10:36:54;;;;;;;5.13;4.73;;;;;;;14.63;64.34;102756.72;4987330;28;20237;-76
2021/09/21 10:39:23;;;;;;;4.77;4.30;;;;;;;14.50;62.98;102827.59;4986590;28;20220;-77
2021/09/21 10:41:51;;;;;;;5.63;4.17;;;;;;;14.37;63.55;102824.94;4986782;28;20209;-76
2021/09/21 10:44:20;;;;;;;6.80;4.60;;;;;;;14.33;63.64;102810.94;4986181;28;20739;-77
2021/09/21 10:46:50;;;;;;;4.07;3.73;;;;;;;14.48;62.54;102841.63;4985891;28;20839;-76
2021/09/21 10:49:28;;;;;;;4.20;3.60;;;;;;;14.55;61.92;102858.28;4986285;28;20726;-76
2021/09/21 10:52:02;;;;;;;3.40;3.20;;;;;;;14.41;61.56;102880.16;4986825;28;20210;-77
2021/09/21 10:54:31;;;;;;;3.73;3.40;;;;;;;14.36;61.35;102895.00;4985900;28;20229;-76
2021/09/21 10:57:07;;;;;;;4.03;3.60;;;;;;;14.52;62.53;102843.38;4986592;28;20236;-77
2021/09/21 10:59:34;;;;;;;3.80;3.47;;;;;;;14.75;63.22;102795.31;4986178;28;20232;-77
2021/09/21 11:02:05;;;;;;;3.63;3.17;;;;;;;14.69;61.30;102883.78;4986573;28;20295;-77
2021/09/21 11:04:43;;;;;;;4.20;3.80;;;;;;;14.78;61.48;102869.78;4986216;28;20205;-76
2021/09/21 11:07:12;;;;;;;4.00;3.70;;;;;;;14.74;61.17;102886.41;4986555;28;20287;-77
2021/09/21 11:09:38;;;;;;;4.23;3.20;;;;;;;14.96;60.99;102886.47;4985869;28;20820;-77
2021/09/21 11:12:07;;;;;;;3.37;3.07;;;;;;;15.05;60.44;102903.16;4986124;28;21022;-77
2021/09/21 11:14:37;;;;;;;3.03;2.80;;;;;;;15.18;60.79;102887.41;4986669;28;20285;-77
2021/09/21 11:17:05;;;;;;;3.50;3.20;;;;;;;15.15;61.13;102882.16;4986817;28;20240;-77
2021/09/21 11:19:32;;;;;;;2.80;2.60;;;;;;;14.91;59.16;102975.91;4986010;28;20854;-77
2021/09/21 11:22:00;;;;;;;2.67;2.47;;;;;;;14.98;59.33;102945.22;4986498;28;20213;-77
2021/09/21 11:24:26;;;;;;;2.80;2.60;;;;;;;14.86;59.68;102946.06;4986180;28;20232;-76
2021/09/21 11:26:58;;;;;;;7.43;3.07;;;;;;;14.89;60.89;102841.75;4985987;28;20265;-77
2021/09/21 11:29:24;;;;;;;2.70;2.33;;;;;;;14.64;59.50;102918.81;4985619;28;20205;-76
2021/09/21 11:31:52;;;;;;;3.70;2.70;;;;;;;14.66;61.05;102875.88;4985877;28;20691;-76
2021/09/21 11:34:19;;;;;;;3.50;3.20;;;;;;;14.75;62.45;102832.97;4985803;28;20257;-77